createdAt,value
2019-05-12T00:00:24.592Z,10.42
2019-05-12T00:01:24.567Z,10.40
2019-05-12T00:02:24.560Z,10.37
2019-05-12T00:03:24.556Z,10.37
2019-05-12T00:04:24.542Z,10.40
2019-05-12T00:05:24.527Z,10.39
2019-05-12T00:06:24.518Z,10.37
2019-05-12T00:07:24.505Z,10.37
2019-05-12T00:08:24.501Z,10.36
2019-05-12T00:09:24.480Z,10.39
2019-05-12T00:10:24.461Z,10.37
2019-05-12T00:11:24.463Z,10.30
2019-05-12T00:12:24.458Z,10.37
2019-05-12T00:13:24.435Z,10.32
2019-05-12T00:14:24.436Z,10.34
2019-05-12T00:15:24.415Z,10.32
2019-05-12T00:16:24.399Z,10.33
2019-05-12T00:17:24.412Z,10.30
2019-05-12T00:18:24.397Z,10.33
2019-05-12T00:19:24.385Z,10.34
2019-05-12T00:20:24.369Z,10.26
2019-05-12T00:21:24.338Z,10.34
2019-05-12T00:22:24.335Z,10.30
2019-05-12T00:23:27.976Z,10.34
2019-05-12T00:24:25.330Z,10.30
2019-05-12T00:25:24.306Z,10.32
2019-05-12T00:26:24.296Z,10.37
2019-05-12T00:27:24.278Z,10.26
2019-05-12T00:28:24.266Z,10.28
2019-05-12T00:29:24.282Z,10.28
2019-05-12T00:30:24.253Z,10.26
2019-05-12T00:31:24.250Z,10.32
2019-05-12T00:32:24.236Z,10.28
2019-05-12T00:33:24.212Z,10.32
2019-05-12T00:34:24.223Z,10.28
2019-05-12T00:35:24.197Z,10.26
2019-05-12T00:36:24.184Z,10.26
2019-05-12T00:37:24.178Z,10.17
2019-05-12T00:38:24.173Z,10.33
2019-05-12T00:39:24.165Z,10.28
2019-05-12T00:40:24.147Z,10.25
2019-05-12T00:41:24.136Z,10.32
2019-05-12T00:42:24.124Z,10.21
2019-05-12T00:43:24.116Z,10.24
2019-05-12T00:44:24.123Z,10.24
2019-05-12T00:45:24.082Z,10.19
2019-05-12T00:46:24.075Z,10.32
2019-05-12T00:47:24.075Z,10.33
2019-05-12T00:48:24.056Z,10.28
2019-05-12T00:49:24.071Z,10.26
2019-05-12T00:50:24.047Z,10.26
2019-05-12T00:51:24.024Z,10.25
2019-05-12T00:52:24.018Z,10.22
2019-05-12T00:53:36.178Z,10.24
2019-05-12T00:54:25.007Z,10.17
2019-05-12T00:55:23.982Z,10.21
2019-05-12T00:56:23.970Z,10.21
2019-05-12T00:57:23.955Z,10.19
2019-05-12T00:58:23.951Z,10.25
2019-05-12T00:59:23.933Z,10.25
2019-05-12T01:00:23.938Z,10.21
2019-05-12T01:01:23.919Z,10.22
2019-05-12T01:02:23.916Z,10.24
2019-05-12T01:03:23.897Z,10.28
2019-05-12T01:04:23.894Z,10.32
2019-05-12T01:05:23.877Z,10.24
2019-05-12T01:06:23.851Z,10.17
2019-05-12T01:07:23.850Z,10.24
2019-05-12T01:08:23.845Z,10.21
2019-05-12T01:09:23.826Z,10.25
2019-05-12T01:10:23.820Z,10.21
2019-05-12T01:11:23.811Z,10.17
2019-05-12T01:12:23.800Z,10.25
2019-05-12T01:13:23.782Z,10.25
2019-05-12T01:14:23.785Z,10.26
2019-05-12T01:15:23.774Z,10.21
2019-05-12T01:16:23.750Z,10.22
2019-05-12T01:17:23.744Z,10.25
2019-05-12T01:18:23.727Z,10.14
2019-05-12T01:19:23.709Z,10.19
2019-05-12T01:20:23.721Z,10.18
2019-05-12T01:21:23.706Z,10.22
2019-05-12T01:22:23.689Z,10.18
2019-05-12T01:23:23.759Z,10.14
2019-05-12T01:24:23.661Z,10.14
2019-05-12T01:25:23.662Z,10.17
2019-05-12T01:26:23.664Z,10.10
2019-05-12T01:27:23.636Z,10.17
2019-05-12T01:28:23.620Z,10.15
2019-05-12T01:29:23.593Z,10.10
2019-05-12T01:30:23.599Z,10.07
2019-05-12T01:31:23.583Z,10.07
2019-05-12T01:32:23.576Z,10.07
2019-05-12T01:33:23.558Z,10.14
2019-05-12T01:34:23.543Z,10.04
2019-05-12T01:35:23.544Z,10.10
2019-05-12T01:36:23.522Z,10.10
2019-05-12T01:37:23.527Z,10.07
2019-05-12T01:38:23.514Z,10.06
2019-05-12T01:39:23.495Z,10.10
2019-05-12T01:40:23.496Z,10.09
2019-05-12T01:41:23.470Z,10.03
2019-05-12T01:42:23.483Z,10.04
2019-05-12T01:43:23.438Z,10.17
2019-05-12T01:44:23.436Z,10.04
2019-05-12T01:45:23.454Z,10.12
2019-05-12T01:46:23.426Z,9.99
2019-05-12T01:47:23.408Z,10.14
2019-05-12T01:48:23.394Z,10.01
2019-05-12T01:49:23.387Z,10.03
2019-05-12T01:50:23.392Z,10.06
2019-05-12T01:51:23.365Z,10.00
2019-05-12T01:52:23.356Z,10.04
2019-05-12T01:53:23.338Z,10.14
2019-05-12T01:54:23.326Z,10.01
2019-05-12T01:55:23.320Z,10.07
2019-05-12T01:56:23.304Z,10.01
2019-05-12T01:57:23.305Z,10.07
2019-05-12T01:58:23.292Z,9.93
2019-05-12T01:59:23.278Z,10.06
2019-05-12T02:00:23.286Z,10.01
2019-05-12T02:01:23.247Z,9.94
2019-05-12T02:02:23.235Z,9.96
2019-05-12T02:03:23.243Z,9.96
2019-05-12T02:04:23.223Z,10.00
2019-05-12T02:05:23.232Z,9.97
2019-05-12T02:06:23.198Z,9.94
2019-05-12T02:07:23.191Z,9.99
2019-05-12T02:08:23.176Z,9.94
2019-05-12T02:09:23.182Z,10.00
2019-05-12T02:10:23.174Z,9.94
2019-05-12T02:11:23.141Z,9.96
2019-05-12T02:12:23.144Z,9.97
2019-05-12T02:13:23.116Z,9.91
2019-05-12T02:14:23.116Z,9.96
2019-05-12T02:15:23.110Z,9.96
2019-05-12T02:16:23.093Z,10.01
2019-05-12T02:17:23.086Z,9.96
2019-05-12T02:18:23.074Z,9.97
2019-05-12T02:19:23.060Z,9.99
2019-05-12T02:20:23.043Z,9.88
2019-05-12T02:21:23.061Z,9.94
2019-05-12T02:22:23.026Z,9.93
2019-05-12T02:23:23.015Z,9.88
2019-05-12T02:24:27.129Z,9.86
2019-05-12T02:25:23.982Z,9.86
2019-05-12T02:26:22.989Z,9.86
2019-05-12T02:27:22.953Z,9.91
2019-05-12T02:28:22.951Z,9.86
2019-05-12T02:29:22.983Z,9.86
2019-05-12T02:30:22.949Z,9.89
2019-05-12T02:31:22.955Z,9.93
2019-05-12T02:32:25.299Z,9.89
2019-05-12T02:33:24.426Z,9.93
2019-05-12T02:34:25.429Z,9.89
2019-05-12T02:35:24.740Z,9.86
2019-05-12T02:36:25.750Z,9.93
2019-05-12T02:37:26.020Z,9.85
2019-05-12T02:38:25.150Z,9.91
2019-05-12T02:39:24.900Z,9.85
2019-05-12T02:40:25.155Z,9.93
2019-05-12T02:41:25.634Z,9.81
2019-05-12T02:42:24.395Z,9.81
2019-05-12T02:43:24.370Z,9.82
2019-05-12T02:44:24.821Z,9.82
2019-05-12T02:45:25.230Z,9.89
2019-05-12T02:46:25.564Z,9.88
2019-05-12T02:47:24.161Z,9.79
2019-05-12T02:48:24.566Z,9.78
2019-05-12T02:49:24.419Z,9.82
2019-05-12T02:50:24.765Z,9.79
2019-05-12T02:51:24.813Z,9.82
2019-05-12T02:52:24.906Z,9.85
2019-05-12T02:53:24.861Z,9.83
2019-05-12T02:54:26.980Z,9.81
2019-05-12T02:55:25.767Z,9.78
2019-05-12T02:56:25.724Z,9.79
2019-05-12T02:57:25.509Z,9.71
2019-05-12T02:58:25.398Z,9.71
2019-05-12T02:59:25.296Z,9.75
2019-05-12T03:00:24.199Z,9.82
2019-05-12T03:01:24.475Z,9.70
2019-05-12T03:02:24.420Z,9.70
2019-05-12T03:03:25.096Z,9.70
2019-05-12T03:04:24.766Z,9.67
2019-05-12T03:05:24.835Z,9.70
2019-05-12T03:06:25.186Z,9.67
2019-05-12T03:07:25.319Z,9.67
2019-05-12T03:08:25.354Z,9.68
2019-05-12T03:09:24.367Z,9.70
2019-05-12T03:10:25.298Z,9.68
2019-05-12T03:11:24.840Z,9.66
2019-05-12T03:12:25.470Z,9.66
2019-05-12T03:13:25.318Z,9.68
2019-05-12T03:14:25.209Z,9.73
2019-05-12T03:15:25.090Z,9.70
2019-05-12T03:16:25.425Z,9.73
2019-05-12T03:17:25.243Z,9.76
2019-05-12T03:18:25.222Z,9.68
2019-05-12T03:19:25.049Z,9.71
2019-05-12T03:20:24.166Z,9.76
2019-05-12T03:21:24.531Z,9.73
2019-05-12T03:22:25.279Z,9.75
2019-05-12T03:23:24.816Z,9.66
2019-05-12T03:24:25.013Z,9.70
2019-05-12T03:25:29.045Z,9.66
2019-05-12T03:26:24.615Z,9.70
2019-05-12T03:27:25.510Z,9.67
2019-05-12T03:28:25.470Z,9.66
2019-05-12T03:29:24.849Z,9.71
2019-05-12T03:30:28.414Z,9.78
2019-05-12T03:31:30.556Z,9.71
2019-05-12T03:32:27.774Z,9.71
2019-05-12T03:33:33.602Z,9.67
2019-05-12T03:34:28.747Z,9.64
2019-05-12T03:35:32.185Z,9.71
2019-05-12T03:36:31.954Z,9.66
2019-05-12T03:37:30.876Z,9.75
2019-05-12T03:38:24.857Z,9.75
2019-05-12T03:39:24.822Z,9.71
2019-05-12T03:40:24.948Z,9.61
2019-05-12T03:41:24.897Z,9.63
2019-05-12T03:42:25.091Z,9.60
2019-05-12T03:43:24.349Z,9.64
2019-05-12T03:44:25.007Z,9.63
2019-05-12T03:45:24.893Z,9.63
2019-05-12T03:46:24.827Z,9.63
2019-05-12T03:47:25.138Z,9.64
2019-05-12T03:48:25.081Z,9.66
2019-05-12T03:49:24.449Z,9.63
2019-05-12T03:50:24.376Z,9.70
2019-05-12T03:51:25.081Z,9.66
2019-05-12T03:52:24.336Z,9.66
2019-05-12T03:53:24.782Z,9.68
2019-05-12T03:54:24.403Z,9.75
2019-05-12T03:55:34.328Z,9.75
2019-05-12T03:56:26.009Z,9.75
2019-05-12T03:57:25.086Z,9.68
2019-05-12T03:58:25.323Z,9.73
2019-05-12T03:59:21.959Z,9.75
2019-05-12T04:00:24.729Z,9.68
2019-05-12T04:01:25.183Z,9.73
2019-05-12T04:02:24.917Z,9.71
2019-05-12T04:03:24.737Z,9.73
2019-05-12T04:04:24.420Z,9.71
2019-05-12T04:05:24.364Z,9.70
2019-05-12T04:06:24.487Z,9.76
2019-05-12T04:07:24.375Z,9.73
2019-05-12T04:08:24.641Z,9.82
2019-05-12T04:09:24.381Z,9.68
2019-05-12T04:10:24.511Z,9.75
2019-05-12T04:11:24.719Z,9.81
2019-05-12T04:12:25.168Z,9.81
2019-05-12T04:13:21.850Z,9.66
2019-05-12T04:14:24.843Z,9.83
2019-05-12T04:15:21.781Z,9.82
2019-05-12T04:16:24.685Z,9.79
2019-05-12T04:17:24.366Z,9.85
2019-05-12T04:18:24.550Z,9.85
2019-05-12T04:19:24.714Z,9.82
2019-05-12T04:20:21.734Z,9.82
2019-05-12T04:21:24.264Z,9.86
2019-05-12T04:22:24.738Z,9.86
2019-05-12T04:23:24.549Z,9.88
2019-05-12T04:24:24.756Z,9.88
2019-05-12T04:25:24.775Z,9.88
2019-05-12T04:26:25.066Z,9.85
2019-05-12T04:27:24.855Z,9.97
2019-05-12T04:28:24.347Z,9.99
2019-05-12T04:29:24.844Z,10.00
2019-05-12T04:30:24.765Z,9.93
2019-05-12T04:31:24.470Z,9.91
2019-05-12T04:32:24.662Z,9.93
2019-05-12T04:33:21.582Z,9.94
2019-05-12T04:34:24.870Z,10.07
2019-05-12T04:35:24.863Z,9.91
2019-05-12T04:36:24.585Z,10.03
2019-05-12T04:37:24.779Z,10.01
2019-05-12T04:38:24.679Z,10.06
2019-05-12T04:39:21.521Z,10.03
2019-05-12T04:40:24.618Z,10.04
2019-05-12T04:41:21.488Z,10.07
2019-05-12T04:42:24.853Z,10.09
2019-05-12T04:43:25.050Z,10.01
2019-05-12T04:44:24.873Z,10.03
2019-05-12T04:45:21.439Z,10.10
2019-05-12T04:46:21.433Z,10.12
2019-05-12T04:47:21.437Z,10.12
2019-05-12T04:48:21.697Z,10.17
2019-05-12T04:49:24.707Z,10.17
2019-05-12T04:50:24.272Z,10.21
2019-05-12T04:51:21.389Z,10.25
2019-05-12T04:52:24.637Z,10.36
2019-05-12T04:53:24.875Z,10.33
2019-05-12T04:54:24.360Z,10.37
2019-05-12T04:55:21.336Z,10.51
2019-05-12T04:56:24.739Z,10.65
2019-05-12T04:57:21.569Z,10.62
2019-05-12T04:58:21.322Z,10.60
2019-05-12T04:59:21.295Z,10.71
2019-05-12T05:00:21.282Z,10.83
2019-05-12T05:01:21.286Z,10.89
2019-05-12T05:02:24.573Z,11.11
2019-05-12T05:03:21.260Z,11.25
2019-05-12T05:04:24.102Z,11.39
2019-05-12T05:05:21.222Z,11.44
2019-05-12T05:06:21.209Z,11.39
2019-05-12T05:07:24.183Z,11.43
2019-05-12T05:08:24.114Z,11.49
2019-05-12T05:09:24.386Z,11.50
2019-05-12T05:10:21.177Z,11.35
2019-05-12T05:11:21.169Z,11.28
2019-05-12T05:12:23.744Z,11.16
2019-05-12T05:13:21.133Z,10.99
2019-05-12T05:14:21.126Z,10.92
2019-05-12T05:15:21.119Z,10.80
2019-05-12T05:16:21.112Z,10.83
2019-05-12T05:17:24.185Z,10.81
2019-05-12T05:18:21.076Z,10.83
2019-05-12T05:19:21.064Z,10.84
2019-05-12T05:20:21.060Z,10.89
2019-05-12T05:21:21.059Z,10.88
2019-05-12T05:22:21.036Z,11.03
2019-05-12T05:23:21.042Z,11.01
2019-05-12T05:24:23.417Z,11.03
2019-05-12T05:25:21.007Z,11.03
2019-05-12T05:26:27.350Z,11.03
2019-05-12T05:27:21.976Z,11.07
2019-05-12T05:28:20.980Z,11.31
2019-05-12T05:29:20.970Z,11.29
2019-05-12T05:30:20.953Z,11.41
2019-05-12T05:31:20.943Z,11.41
2019-05-12T05:32:23.173Z,11.59
2019-05-12T05:33:20.938Z,11.56
2019-05-12T05:34:20.910Z,11.62
2019-05-12T05:35:20.892Z,11.65
2019-05-12T05:36:20.883Z,11.44
2019-05-12T05:37:20.863Z,11.64
2019-05-12T05:38:21.014Z,11.57
2019-05-12T05:39:20.842Z,11.47
2019-05-12T05:40:28.461Z,11.53
2019-05-12T05:41:23.930Z,11.49
2019-05-12T05:42:22.044Z,11.47
2019-05-12T05:43:24.049Z,11.47
2019-05-12T05:44:20.806Z,11.49
2019-05-12T05:45:24.183Z,11.50
2019-05-12T05:46:23.939Z,11.52
2019-05-12T05:47:25.662Z,11.41
2019-05-12T05:48:24.012Z,11.38
2019-05-12T05:49:20.738Z,11.32
2019-05-12T05:50:24.810Z,11.34
2019-05-12T05:51:23.735Z,11.34
2019-05-12T05:52:24.608Z,11.34
2019-05-12T05:53:21.708Z,11.27
2019-05-12T05:54:24.736Z,11.24
2019-05-12T05:55:23.334Z,11.24
2019-05-12T05:56:20.673Z,11.07
2019-05-12T05:57:25.696Z,11.13
2019-05-12T05:58:21.684Z,11.20
2019-05-12T05:59:21.899Z,11.25
2019-05-12T06:00:26.029Z,11.28
2019-05-12T06:01:20.614Z,11.31
2019-05-12T06:02:25.504Z,11.34
2019-05-12T06:03:27.205Z,11.44
2019-05-12T06:04:23.666Z,11.36
2019-05-12T06:05:26.319Z,11.50
2019-05-12T06:06:23.666Z,11.62
2019-05-12T06:07:23.941Z,11.74
2019-05-12T06:08:23.696Z,11.94
2019-05-12T06:09:20.518Z,12.05
2019-05-12T06:10:20.500Z,12.20
2019-05-12T06:11:26.513Z,12.42
2019-05-12T06:12:23.546Z,12.56
2019-05-12T06:13:21.234Z,12.63
2019-05-12T06:14:23.572Z,12.75
2019-05-12T06:15:20.458Z,12.93
2019-05-12T06:16:22.829Z,12.95
2019-05-12T06:17:20.429Z,13.30
2019-05-12T06:18:20.429Z,13.49
2019-05-12T06:19:23.481Z,13.77
2019-05-12T06:20:23.683Z,14.13
2019-05-12T06:21:20.378Z,14.42
2019-05-12T06:22:20.369Z,14.50
2019-05-12T06:23:20.371Z,14.75
2019-05-12T06:24:20.370Z,14.90
2019-05-12T06:25:20.361Z,15.23
2019-05-12T06:26:20.948Z,15.48
2019-05-12T06:27:21.345Z,15.54
2019-05-12T06:28:20.310Z,15.66
2019-05-12T06:29:21.999Z,16.42
2019-05-12T06:30:20.279Z,17.33
2019-05-12T06:31:25.234Z,18.47
2019-05-12T06:32:21.251Z,19.21
2019-05-12T06:33:22.820Z,20.21
2019-05-12T06:34:21.263Z,20.83
2019-05-12T06:35:20.222Z,21.42
2019-05-12T06:36:22.160Z,21.72
2019-05-12T06:37:20.218Z,22.20
2019-05-12T06:38:20.224Z,22.47
2019-05-12T06:39:20.857Z,22.37
2019-05-12T06:40:20.186Z,22.37
2019-05-12T06:41:21.326Z,22.12
2019-05-12T06:42:20.142Z,22.07
2019-05-12T06:43:20.169Z,21.94
2019-05-12T06:44:20.145Z,22.22
2019-05-12T06:45:20.125Z,21.71
2019-05-12T06:46:22.991Z,21.13
2019-05-12T06:47:21.104Z,20.66
2019-05-12T06:48:25.672Z,20.34
2019-05-12T06:49:21.077Z,20.02
2019-05-12T06:50:20.057Z,19.73
2019-05-12T06:51:23.680Z,19.60
2019-05-12T06:52:21.040Z,19.51
2019-05-12T06:53:24.958Z,19.80
2019-05-12T06:54:21.019Z,19.73
2019-05-12T06:55:19.997Z,19.72
2019-05-12T06:56:20.075Z,20.21
2019-05-12T06:57:25.192Z,20.90
2019-05-12T06:58:26.786Z,21.32
2019-05-12T06:59:23.590Z,21.41
2019-05-12T07:00:22.260Z,21.79
2019-05-12T07:01:20.937Z,22.28
2019-05-12T07:02:19.927Z,22.49
2019-05-12T07:03:28.420Z,22.94
2019-05-12T07:04:23.409Z,23.11
2019-05-12T07:05:19.899Z,23.20
2019-05-12T07:06:20.093Z,23.39
2019-05-12T07:07:19.896Z,23.50
2019-05-12T07:08:26.302Z,23.62
2019-05-12T07:09:25.135Z,23.87
2019-05-12T07:10:36.743Z,24.50
2019-05-12T07:11:20.859Z,24.71
2019-05-12T07:12:24.947Z,25.15
2019-05-12T07:13:24.627Z,25.12
2019-05-12T07:14:23.164Z,25.10
2019-05-12T07:15:22.853Z,25.05
2019-05-12T07:16:23.785Z,25.00
2019-05-12T07:17:20.767Z,25.02
2019-05-12T07:18:24.371Z,24.67
2019-05-12T07:19:22.627Z,24.59
2019-05-12T07:20:19.741Z,24.57
2019-05-12T07:21:23.639Z,24.73
2019-05-12T07:22:23.401Z,24.23
2019-05-12T07:23:25.991Z,23.89
2019-05-12T07:24:20.710Z,24.07
2019-05-12T07:25:24.539Z,24.14
2019-05-12T07:26:20.665Z,24.14
2019-05-12T07:27:32.237Z,24.75
2019-05-12T07:28:20.640Z,25.07
2019-05-12T07:29:19.654Z,25.52
2019-05-12T07:30:19.646Z,25.89
2019-05-12T07:31:19.629Z,26.47
2019-05-12T07:32:21.782Z,26.65
2019-05-12T07:33:19.618Z,26.96
2019-05-12T07:34:19.614Z,27.29
2019-05-12T07:35:19.585Z,27.39
2019-05-12T07:36:19.557Z,27.58
2019-05-12T07:37:19.554Z,27.54
2019-05-12T07:38:21.559Z,27.58
2019-05-12T07:39:19.538Z,27.92
2019-05-12T07:40:25.652Z,28.17
2019-05-12T07:41:20.510Z,28.56
2019-05-12T07:42:22.683Z,28.60
2019-05-12T07:43:20.868Z,27.69
2019-05-12T07:44:22.191Z,28.16
2019-05-12T07:45:22.389Z,28.41
2019-05-12T07:46:19.451Z,28.31
2019-05-12T07:47:24.631Z,26.72
2019-05-12T07:48:20.424Z,27.21
2019-05-12T07:49:22.016Z,27.86
2019-05-12T07:50:24.270Z,27.98
2019-05-12T07:51:20.406Z,28.48
2019-05-12T07:52:19.400Z,29.11
2019-05-12T07:53:19.388Z,29.52
2019-05-12T07:54:19.384Z,29.84
2019-05-12T07:55:19.387Z,30.09
2019-05-12T07:56:24.359Z,30.21
2019-05-12T07:57:20.332Z,30.43
2019-05-12T07:58:19.670Z,30.11
2019-05-12T07:59:19.316Z,30.30
2019-05-12T08:00:25.174Z,30.53
2019-05-12T08:01:20.304Z,30.52
2019-05-12T08:02:23.178Z,30.57
2019-05-12T08:03:21.426Z,30.56
2019-05-12T08:04:19.278Z,30.72
2019-05-12T08:05:21.241Z,30.69
2019-05-12T08:06:19.243Z,30.56
2019-05-12T08:07:19.766Z,30.67
2019-05-12T08:08:20.243Z,30.46
2019-05-12T08:09:24.108Z,30.53
2019-05-12T08:10:20.389Z,30.64
2019-05-12T08:11:19.194Z,30.74
2019-05-12T08:12:20.946Z,30.71
2019-05-12T08:13:19.186Z,30.30
2019-05-12T08:14:25.887Z,29.74
2019-05-12T08:15:20.204Z,29.10
2019-05-12T08:16:19.530Z,29.33
2019-05-12T08:17:20.134Z,29.50
2019-05-12T08:18:19.122Z,30.03
2019-05-12T08:19:23.913Z,30.05
2019-05-12T08:20:20.114Z,29.68
2019-05-12T08:21:19.105Z,29.37
2019-05-12T08:22:24.324Z,29.78
2019-05-12T08:23:20.076Z,30.21
2019-05-12T08:24:19.075Z,30.36
2019-05-12T08:25:27.098Z,30.47
2019-05-12T08:26:20.038Z,30.43
2019-05-12T08:27:19.039Z,30.26
2019-05-12T08:28:24.421Z,30.76
2019-05-12T08:29:21.443Z,31.24
2019-05-12T08:30:19.022Z,31.13
2019-05-12T08:31:23.547Z,31.06
2019-05-12T08:32:20.414Z,31.08
2019-05-12T08:33:18.979Z,30.83
2019-05-12T08:34:18.984Z,30.84
2019-05-12T08:35:25.559Z,30.98
2019-05-12T08:36:23.443Z,31.20
2019-05-12T08:37:18.932Z,31.06
2019-05-12T08:38:18.923Z,31.15
2019-05-12T08:39:22.856Z,31.36
2019-05-12T08:40:19.909Z,31.27
2019-05-12T08:41:18.941Z,31.15
2019-05-12T08:42:18.918Z,30.98
2019-05-12T08:43:18.878Z,30.96
2019-05-12T08:44:24.596Z,31.09
2019-05-12T08:45:25.737Z,31.08
2019-05-12T08:46:19.870Z,31.13
2019-05-12T08:47:18.847Z,31.49
2019-05-12T08:48:21.638Z,31.64
2019-05-12T08:49:19.818Z,31.92
2019-05-12T08:50:25.591Z,31.75
2019-05-12T08:51:20.222Z,31.84
2019-05-12T08:52:18.786Z,31.70
2019-05-12T08:53:20.884Z,31.40
2019-05-12T08:54:18.780Z,30.91
2019-05-12T08:55:25.163Z,30.87
2019-05-12T08:56:22.958Z,31.20
2019-05-12T08:57:19.734Z,31.36
2019-05-12T08:58:30.106Z,31.84
2019-05-12T08:59:24.908Z,31.87
2019-05-12T09:00:19.710Z,32.14
2019-05-12T09:01:20.269Z,32.30
2019-05-12T09:02:19.696Z,32.49
2019-05-12T09:03:20.322Z,32.73
2019-05-12T09:04:19.669Z,32.17
2019-05-12T09:05:18.666Z,31.93
2019-05-12T09:06:19.803Z,31.95
2019-05-12T09:07:18.690Z,31.95
2019-05-12T09:08:18.633Z,32.00
2019-05-12T09:09:18.620Z,31.58
2019-05-12T09:10:18.601Z,31.48
2019-05-12T09:11:18.618Z,31.20
2019-05-12T09:12:18.592Z,30.68
2019-05-12T09:13:18.585Z,30.46
2019-05-12T09:14:18.587Z,30.08
2019-05-12T09:15:18.559Z,29.81
2019-05-12T09:16:18.567Z,29.49
2019-05-12T09:17:18.553Z,29.28
2019-05-12T09:18:19.073Z,29.08
2019-05-12T09:19:23.867Z,29.18
2019-05-12T09:20:19.540Z,29.19
2019-05-12T09:21:23.740Z,29.56
2019-05-12T09:22:20.902Z,29.78
2019-05-12T09:23:18.492Z,30.19
2019-05-12T09:24:21.754Z,30.16
2019-05-12T09:25:19.467Z,30.33
2019-05-12T09:26:23.680Z,29.99
2019-05-12T09:27:19.453Z,29.92
2019-05-12T09:28:18.450Z,30.24
2019-05-12T09:29:18.420Z,30.05
2019-05-12T09:30:18.408Z,30.27
2019-05-12T09:31:19.462Z,30.54
2019-05-12T09:32:19.422Z,30.64
2019-05-12T09:33:21.275Z,30.80
2019-05-12T09:34:19.376Z,31.09
2019-05-12T09:35:18.365Z,31.11
2019-05-12T09:36:21.472Z,30.68
2019-05-12T09:37:18.367Z,30.46
2019-05-12T09:38:23.124Z,30.43
2019-05-12T09:39:19.331Z,30.74
2019-05-12T09:40:20.633Z,31.20
2019-05-12T09:41:18.317Z,31.18
2019-05-12T09:42:19.210Z,30.96
2019-05-12T09:43:19.281Z,31.01
2019-05-12T09:44:20.288Z,31.23
2019-05-12T09:45:19.290Z,31.27
2019-05-12T09:46:18.270Z,31.45
2019-05-12T09:47:23.002Z,31.60
2019-05-12T09:48:19.238Z,31.64
2019-05-12T09:49:24.874Z,31.57
2019-05-12T09:50:20.445Z,31.62
2019-05-12T09:51:18.216Z,31.55
2019-05-12T09:52:22.083Z,31.77
2019-05-12T09:53:19.186Z,32.02
2019-05-12T09:54:18.173Z,32.37
2019-05-12T09:55:18.170Z,32.59
2019-05-12T09:56:18.165Z,32.89
2019-05-12T09:57:18.170Z,32.54
2019-05-12T09:58:23.251Z,32.57
2019-05-12T09:59:22.990Z,32.42
2019-05-12T10:00:19.125Z,32.67
2019-05-12T10:01:18.112Z,32.48
2019-05-12T10:02:20.704Z,32.51
2019-05-12T10:03:18.096Z,32.77
2019-05-12T10:04:19.742Z,32.84
2019-05-12T10:05:18.071Z,32.71
2019-05-12T10:06:21.255Z,32.48
2019-05-12T10:07:18.066Z,32.81
2019-05-12T10:08:18.050Z,32.85
2019-05-12T10:09:19.838Z,33.22
2019-05-12T10:10:18.032Z,33.34
2019-05-12T10:11:20.773Z,33.49
2019-05-12T10:12:18.036Z,33.71
2019-05-12T10:13:20.264Z,33.70
2019-05-12T10:14:18.996Z,33.51
2019-05-12T10:15:26.713Z,33.41
2019-05-12T10:16:18.962Z,33.29
2019-05-12T10:17:20.425Z,33.64
2019-05-12T10:18:18.958Z,34.11
2019-05-12T10:19:17.939Z,33.89
2019-05-12T10:20:17.936Z,33.60
2019-05-12T10:21:17.932Z,32.96
2019-05-12T10:22:17.934Z,32.96
2019-05-12T10:23:20.477Z,32.70
2019-05-12T10:24:17.920Z,32.67
2019-05-12T10:25:17.877Z,32.70
2019-05-12T10:26:17.902Z,32.47
2019-05-12T10:27:21.005Z,32.24
2019-05-12T10:28:18.855Z,31.98
2019-05-12T10:29:20.589Z,32.06
2019-05-12T10:30:17.913Z,32.29
2019-05-12T10:31:18.839Z,32.14
2019-05-12T10:32:17.848Z,32.14
2019-05-12T10:33:17.845Z,32.14
2019-05-12T10:34:17.807Z,32.07
2019-05-12T10:35:24.034Z,31.88
2019-05-12T10:36:18.787Z,31.50
2019-05-12T10:37:19.272Z,31.43
2019-05-12T10:38:18.774Z,31.45
2019-05-12T10:39:17.768Z,31.30
2019-05-12T10:40:17.764Z,31.30
2019-05-12T10:41:17.755Z,31.12
2019-05-12T10:42:17.742Z,31.13
2019-05-12T10:43:17.745Z,31.48
2019-05-12T10:44:17.733Z,31.79
2019-05-12T10:45:20.514Z,32.03
2019-05-12T10:46:18.532Z,32.29
2019-05-12T10:47:18.690Z,32.24
2019-05-12T10:48:17.683Z,32.03
2019-05-12T10:49:17.671Z,31.57
2019-05-12T10:50:17.666Z,31.72
2019-05-12T10:51:17.648Z,31.50
2019-05-12T10:52:17.638Z,31.45
2019-05-12T10:53:17.936Z,31.55
2019-05-12T10:54:17.631Z,31.70
2019-05-12T10:55:17.623Z,31.60
2019-05-12T10:56:17.608Z,31.62
2019-05-12T10:57:17.595Z,31.39
2019-05-12T10:58:17.594Z,30.94
2019-05-12T10:59:30.305Z,31.13
2019-05-12T11:00:24.745Z,31.36
2019-05-12T11:01:18.562Z,31.43
2019-05-12T11:02:20.314Z,31.62
2019-05-12T11:03:18.563Z,31.85
2019-05-12T11:04:25.043Z,31.87
2019-05-12T11:05:21.567Z,31.55
2019-05-12T11:06:18.503Z,31.46
2019-05-12T11:07:17.504Z,31.30
2019-05-12T11:08:17.505Z,30.94
2019-05-12T11:09:21.376Z,31.18
2019-05-12T11:10:20.008Z,31.39
2019-05-12T11:11:17.464Z,31.61
2019-05-12T11:12:19.206Z,31.77
2019-05-12T11:13:18.466Z,31.88
2019-05-12T11:14:20.211Z,32.03
2019-05-12T11:15:18.442Z,31.91
2019-05-12T11:16:22.917Z,31.57
2019-05-12T11:17:18.408Z,31.39
2019-05-12T11:18:20.558Z,31.17
2019-05-12T11:19:18.382Z,30.69
2019-05-12T11:20:17.374Z,30.19
2019-05-12T11:21:17.377Z,30.47
2019-05-12T11:22:17.367Z,30.40
2019-05-12T11:23:17.374Z,30.59
2019-05-12T11:24:17.342Z,30.75
2019-05-12T11:25:17.336Z,30.45
2019-05-12T11:26:17.332Z,29.90
2019-05-12T11:27:17.339Z,30.23
2019-05-12T11:28:17.417Z,30.68
2019-05-12T11:29:17.296Z,31.06
2019-05-12T11:30:17.288Z,31.48
2019-05-12T11:31:17.263Z,31.49
2019-05-12T11:32:17.775Z,31.96
2019-05-12T11:33:17.296Z,31.84
2019-05-12T11:34:17.255Z,31.70
2019-05-12T11:35:17.249Z,31.95
2019-05-12T11:36:17.244Z,32.14
2019-05-12T11:37:17.224Z,32.33
2019-05-12T11:38:17.233Z,32.58
2019-05-12T11:39:17.216Z,32.27
2019-05-12T11:40:17.219Z,32.20
2019-05-12T11:41:20.268Z,32.15
2019-05-12T11:42:17.181Z,32.05
2019-05-12T11:43:17.164Z,31.92
2019-05-12T11:44:17.177Z,31.84
2019-05-12T11:45:17.160Z,31.75
2019-05-12T11:46:17.146Z,31.92
2019-05-12T11:47:24.369Z,31.99
2019-05-12T11:48:18.128Z,31.77
2019-05-12T11:49:21.770Z,31.64
2019-05-12T11:50:18.096Z,31.72
2019-05-12T11:51:20.885Z,32.06
2019-05-12T11:52:19.393Z,32.33
2019-05-12T11:53:17.085Z,32.49
2019-05-12T11:54:17.094Z,32.80
2019-05-12T11:55:21.274Z,32.66
2019-05-12T11:56:18.047Z,32.22
2019-05-12T11:57:20.023Z,31.96
2019-05-12T11:58:18.033Z,31.77
2019-05-12T11:59:17.036Z,31.36
2019-05-12T12:00:17.019Z,31.61
2019-05-12T12:01:16.989Z,31.65
2019-05-12T12:02:20.153Z,31.17
2019-05-12T12:03:18.472Z,30.72
2019-05-12T12:04:16.991Z,30.45
2019-05-12T12:05:16.979Z,30.36
2019-05-12T12:06:16.961Z,30.84
2019-05-12T12:07:16.957Z,30.57
2019-05-12T12:08:16.946Z,31.01
2019-05-12T12:09:18.878Z,31.13
2019-05-12T12:10:16.921Z,31.48
2019-05-12T12:11:24.297Z,31.65
2019-05-12T12:12:17.921Z,31.12
2019-05-12T12:13:19.229Z,31.11
2019-05-12T12:14:17.897Z,30.74
2019-05-12T12:15:20.315Z,30.87
2019-05-12T12:16:17.875Z,30.98
2019-05-12T12:17:16.878Z,30.83
2019-05-12T12:18:16.891Z,30.71
2019-05-12T12:19:16.864Z,30.98
2019-05-12T12:20:22.265Z,31.08
2019-05-12T12:21:17.821Z,30.72
2019-05-12T12:22:20.509Z,30.21
2019-05-12T12:23:17.809Z,30.36
2019-05-12T12:24:21.234Z,30.40
2019-05-12T12:25:17.798Z,30.65
2019-05-12T12:26:20.096Z,30.87
2019-05-12T12:27:16.777Z,30.96
2019-05-12T12:28:16.764Z,30.94
2019-05-12T12:29:16.779Z,30.81
2019-05-12T12:30:19.763Z,30.69
2019-05-12T12:31:16.755Z,30.59
2019-05-12T12:32:20.176Z,29.57
2019-05-12T12:33:16.721Z,28.44
2019-05-12T12:34:23.539Z,27.96
2019-05-12T12:35:17.685Z,27.66
2019-05-12T12:36:16.674Z,26.76
2019-05-12T12:37:19.040Z,26.05
2019-05-12T12:38:17.657Z,25.37
2019-05-12T12:39:16.662Z,24.68
2019-05-12T12:40:16.643Z,24.22
2019-05-12T12:41:16.623Z,23.75
2019-05-12T12:42:16.609Z,23.62
2019-05-12T12:43:16.617Z,23.46
2019-05-12T12:44:16.633Z,23.19
2019-05-12T12:45:16.581Z,22.52
2019-05-12T12:46:21.175Z,21.99
2019-05-12T12:47:16.565Z,21.48
2019-05-12T12:48:19.448Z,20.93
2019-05-12T12:49:17.584Z,20.89
2019-05-12T12:50:20.329Z,20.72
2019-05-12T12:51:17.759Z,20.51
2019-05-12T12:52:16.529Z,20.27
2019-05-12T12:53:16.554Z,20.15
2019-05-12T12:54:16.492Z,19.94
2019-05-12T12:55:16.490Z,20.05
2019-05-12T12:56:28.308Z,20.10
2019-05-12T12:57:19.163Z,20.23